createdAt,value
2022-08-07T00:02:35.609Z,2.35
2022-08-07T00:04:09.706Z,3.80
2022-08-07T00:06:45.610Z,4.63
2022-08-07T00:09:29.186Z,2.33
2022-08-07T00:12:04.487Z,1.80
2022-08-07T00:14:32.582Z,1.95
2022-08-07T00:17:02.923Z,2.30
2022-08-07T00:20:01.624Z,1.40
2022-08-07T00:22:24.705Z,2.28
2022-08-07T00:25:15.845Z,2.10
2022-08-07T00:27:53.670Z,1.30
2022-08-07T00:30:28.250Z,1.98
2022-08-07T00:33:02.296Z,2.05
2022-08-07T00:35:30.970Z,1.67
2022-08-07T00:38:03.600Z,1.33
2022-08-07T00:40:36.180Z,1.73
2022-08-07T00:43:09.939Z,1.55
2022-08-07T00:45:40.874Z,1.42
2022-08-07T00:48:11.205Z,1.98
2022-08-07T00:50:50.847Z,1.90
2022-08-07T00:53:21.182Z,2.35
2022-08-07T00:56:00.562Z,3.67
2022-08-07T00:58:32.706Z,2.35
2022-08-07T01:01:00.961Z,2.03
2022-08-07T01:03:56.981Z,1.40
2022-08-07T01:06:19.171Z,1.90
2022-08-07T01:08:53.095Z,2.10
2022-08-07T01:12:09.388Z,1.75
2022-08-07T01:14:10.690Z,1.83
2022-08-07T01:16:42.973Z,1.98
2022-08-07T01:19:19.264Z,2.40
2022-08-07T01:21:53.481Z,2.05
2022-08-07T01:24:30.553Z,2.20
2022-08-07T01:27:01.556Z,1.52
2022-08-07T01:29:33.888Z,1.40
2022-08-07T01:32:05.799Z,2.00
2022-08-07T01:34:47.167Z,1.85
2022-08-07T01:37:18.988Z,1.85
2022-08-07T01:39:50.222Z,2.20
2022-08-07T01:42:37.994Z,1.80
2022-08-07T01:45:18.312Z,1.73
2022-08-07T01:48:18.339Z,1.92
2022-08-07T01:50:47.517Z,2.22
2022-08-07T01:54:12.326Z,1.92
2022-08-07T01:56:17.637Z,1.38
2022-08-07T01:58:58.577Z,1.45
2022-08-07T02:02:01.607Z,2.22
2022-08-07T02:04:39.961Z,2.85
2022-08-07T02:07:35.740Z,1.80
2022-08-07T02:13:19.312Z,1.77
2022-08-07T02:16:11.858Z,1.83
2022-08-07T02:18:46.787Z,2.15
2022-08-07T02:21:19.312Z,2.08
2022-08-07T02:23:49.361Z,1.98
2022-08-07T02:26:33.082Z,2.13
2022-08-07T02:29:13.720Z,2.33
2022-08-07T02:31:44.003Z,2.75
2022-08-07T02:34:18.088Z,2.28
2022-08-07T02:36:52.727Z,2.15
2022-08-07T02:39:43.112Z,2.30
2022-08-07T02:42:16.368Z,2.05
2022-08-07T02:44:52.473Z,2.22
2022-08-07T02:47:23.902Z,2.60
2022-08-07T02:50:03.958Z,2.33
2022-08-07T02:52:54.834Z,2.00
2022-08-07T02:56:03.681Z,2.30
2022-08-07T02:58:27.920Z,2.38
2022-08-07T03:01:04.173Z,2.55
2022-08-07T03:03:49.503Z,2.33
2022-08-07T03:06:25.861Z,2.45
2022-08-07T03:09:11.349Z,1.80
2022-08-07T03:11:52.390Z,2.28
2022-08-07T03:14:31.007Z,2.40
2022-08-07T03:16:59.731Z,2.25
2022-08-07T03:19:36.927Z,1.83
2022-08-07T03:22:08.471Z,1.92
2022-08-07T03:24:47.929Z,2.45
2022-08-07T03:27:30.441Z,2.15
2022-08-07T03:30:01.182Z,2.67
2022-08-07T03:32:39.985Z,2.15
2022-08-07T03:35:26.323Z,2.03
2022-08-07T03:38:02.055Z,1.90
2022-08-07T03:40:36.492Z,2.42
2022-08-07T03:43:14.628Z,2.20
2022-08-07T03:45:51.829Z,2.17
2022-08-07T03:48:26.119Z,1.90
2022-08-07T03:50:59.511Z,2.00
2022-08-07T03:56:33.060Z,2.03
2022-08-07T03:59:13.113Z,1.73
2022-08-07T04:01:48.446Z,2.15
2022-08-07T04:04:23.827Z,2.42
2022-08-07T04:06:58.330Z,2.10
2022-08-07T04:09:45.117Z,2.13
2022-08-07T04:12:27.405Z,2.03
2022-08-07T04:15:00.291Z,2.65
2022-08-07T04:18:58.500Z,2.40
2022-08-07T04:20:22.472Z,2.00
2022-08-07T04:23:01.953Z,1.60
2022-08-07T04:25:40.974Z,2.22
2022-08-07T04:28:13.283Z,2.00
2022-08-07T04:30:55.584Z,2.10
2022-08-07T04:33:35.281Z,1.85
2022-08-07T04:36:10.153Z,2.60
2022-08-07T04:38:40.850Z,2.20
2022-08-07T04:41:10.051Z,2.15
2022-08-07T04:44:14.759Z,1.63
2022-08-07T04:46:59.639Z,2.45
2022-08-07T04:50:04.571Z,2.35
2022-08-07T04:54:01.410Z,2.40
2022-08-07T04:58:12.789Z,2.97
2022-08-07T05:00:11.956Z,2.75
2022-08-07T05:04:00.086Z,2.13
2022-08-07T05:06:42.964Z,2.78
2022-08-07T05:09:59.557Z,2.38
2022-08-07T05:12:46.261Z,2.50
2022-08-07T05:15:31.362Z,2.75
2022-08-07T05:18:23.728Z,2.58
2022-08-07T05:20:56.472Z,3.33
2022-08-07T05:23:57.932Z,3.13
2022-08-07T05:26:29.876Z,2.78
2022-08-07T05:29:10.254Z,2.65
2022-08-07T05:31:51.119Z,2.72
2022-08-07T05:34:27.678Z,2.95
2022-08-07T05:36:57.867Z,2.40
2022-08-07T05:40:13.485Z,2.83
2022-08-07T05:42:33.894Z,2.35
2022-08-07T05:45:19.845Z,2.70
2022-08-07T05:48:02.555Z,2.25
2022-08-07T05:50:39.561Z,2.80
2022-08-07T05:54:13.621Z,2.75
2022-08-07T05:56:06.091Z,2.72
2022-08-07T05:58:49.231Z,2.40
2022-08-07T06:01:26.254Z,1.92
2022-08-07T06:04:01.390Z,2.65
2022-08-07T06:06:37.240Z,3.00
2022-08-07T06:09:09.258Z,2.58
2022-08-07T06:11:43.936Z,2.85
2022-08-07T06:14:21.336Z,3.03
2022-08-07T06:17:01.232Z,2.80
2022-08-07T06:19:52.130Z,2.25
2022-08-07T06:22:38.328Z,2.50
2022-08-07T06:25:25.899Z,2.95
2022-08-07T06:28:07.773Z,2.17
2022-08-07T06:30:42.701Z,2.47
2022-08-07T06:33:19.679Z,2.03
2022-08-07T06:36:06.829Z,4.38
2022-08-07T06:38:59.585Z,4.05
2022-08-07T06:42:01.586Z,3.53
2022-08-07T06:44:53.534Z,5.05
2022-08-07T06:47:23.097Z,4.25
2022-08-07T06:49:58.865Z,3.05
2022-08-07T06:52:39.547Z,2.28
2022-08-07T06:55:34.391Z,2.45
2022-08-07T06:58:16.575Z,3.05
2022-08-07T07:00:55.885Z,13.50
2022-08-07T07:03:39.573Z,4.57
2022-08-07T07:06:14.013Z,3.30
2022-08-07T07:08:54.412Z,3.53
2022-08-07T07:12:08.478Z,3.00
2022-08-07T07:14:14.108Z,2.72
2022-08-07T07:16:51.016Z,3.67
2022-08-07T07:19:55.479Z,2.45
2022-08-07T07:22:36.007Z,3.50
2022-08-07T07:26:30.773Z,4.25
2022-08-07T07:28:42.065Z,2.85
2022-08-07T07:31:17.370Z,3.35
2022-08-07T07:33:57.151Z,3.03
2022-08-07T07:36:32.649Z,3.38
2022-08-07T07:39:04.900Z,3.22
2022-08-07T07:42:02.075Z,2.47
2022-08-07T07:44:26.787Z,3.10
2022-08-07T07:47:02.242Z,3.33
2022-08-07T07:52:37.829Z,3.05
2022-08-07T07:55:11.442Z,2.55
2022-08-07T07:57:51.518Z,3.22
2022-08-07T08:00:29.583Z,2.90
2022-08-07T08:03:16.805Z,3.42
2022-08-07T08:06:00.316Z,4.70
2022-08-07T08:08:36.839Z,3.92
2022-08-07T08:11:16.029Z,3.03
2022-08-07T08:13:54.906Z,3.85
2022-08-07T08:16:35.433Z,2.80
2022-08-07T08:19:18.048Z,2.40
2022-08-07T08:22:18.141Z,2.70
2022-08-07T08:25:42.513Z,4.63
2022-08-07T08:28:37.670Z,3.13
2022-08-07T08:31:15.986Z,3.40
2022-08-07T08:33:55.405Z,3.13
2022-08-07T08:36:30.586Z,2.40
2022-08-07T08:39:02.630Z,3.60
2022-08-07T08:41:57.733Z,3.47
2022-08-07T08:44:51.560Z,2.65
2022-08-07T08:47:31.613Z,3.50
2022-08-07T08:50:28.624Z,3.67
2022-08-07T08:53:29.507Z,3.42
2022-08-07T08:56:04.590Z,2.60
2022-08-07T08:59:06.432Z,3.10
2022-08-07T09:02:16.077Z,3.90
2022-08-07T09:05:26.432Z,4.07
2022-08-07T09:08:32.856Z,2.97
2022-08-07T09:11:43.689Z,3.90
2022-08-07T09:14:50.622Z,4.20
2022-08-07T09:17:59.337Z,3.05
2022-08-07T09:21:06.358Z,3.20
2022-08-07T09:24:31.055Z,3.60
2022-08-07T09:27:59.812Z,3.92
2022-08-07T09:30:59.034Z,2.83
2022-08-07T09:34:21.558Z,3.65
2022-08-07T09:36:58.296Z,4.18
2022-08-07T09:39:58.001Z,4.18
2022-08-07T09:43:09.661Z,4.95
2022-08-07T09:47:55.747Z,4.07
2022-08-07T09:50:03.746Z,4.43
2022-08-07T09:52:51.834Z,4.75
2022-08-07T09:56:02.398Z,4.40
2022-08-07T09:58:32.193Z,4.10
2022-08-07T10:01:50.323Z,4.93
2022-08-07T10:04:52.921Z,4.82
2022-08-07T10:08:03.075Z,4.93
2022-08-07T10:11:16.772Z,5.32
2022-08-07T10:14:03.885Z,4.50
2022-08-07T10:17:14.133Z,4.80
2022-08-07T10:20:00.175Z,4.93
2022-08-07T10:23:09.653Z,5.32
2022-08-07T10:26:31.066Z,4.95
2022-08-07T10:29:35.342Z,5.15
2022-08-07T10:32:52.793Z,4.40
2022-08-07T10:35:55.506Z,4.93
2022-08-07T10:38:35.875Z,4.47
2022-08-07T10:41:46.575Z,4.90
2022-08-07T10:45:11.907Z,4.78
2022-08-07T10:47:52.665Z,3.83
2022-08-07T10:50:44.892Z,4.07
2022-08-07T10:53:51.030Z,5.10
2022-08-07T10:56:37.095Z,5.10
2022-08-07T10:59:38.779Z,5.10
2022-08-07T11:02:37.568Z,5.68
2022-08-07T11:05:44.840Z,4.50
2022-08-07T11:08:30.266Z,4.70
2022-08-07T11:11:10.516Z,4.50
2022-08-07T11:14:45.364Z,5.35
2022-08-07T11:17:43.440Z,4.93
2022-08-07T11:20:24.658Z,4.72
2022-08-07T11:23:38.635Z,4.65
2022-08-07T11:26:27.003Z,4.50
2022-08-07T11:29:43.048Z,4.70
2022-08-07T11:32:15.427Z,4.93
2022-08-07T11:36:00.188Z,4.60
2022-08-07T11:39:59.441Z,4.22
2022-08-07T11:43:03.159Z,4.90
2022-08-07T11:46:12.397Z,4.18
2022-08-07T11:49:50.427Z,4.97
2022-08-07T11:52:35.648Z,5.35
2022-08-07T11:55:18.869Z,4.80
2022-08-07T11:58:33.168Z,5.43
2022-08-07T12:01:59.158Z,5.53
2022-08-07T12:05:28.704Z,5.38
2022-08-07T12:08:34.642Z,4.47
2022-08-07T12:11:21.553Z,4.68
2022-08-07T12:14:04.028Z,4.78
2022-08-07T12:16:42.759Z,4.90
2022-08-07T12:19:14.655Z,5.35
2022-08-07T12:22:39.608Z,4.68
2022-08-07T12:26:03.021Z,4.88
2022-08-07T12:29:03.739Z,5.15
2022-08-07T12:31:52.905Z,4.85
2022-08-07T12:34:31.752Z,4.78
2022-08-07T12:37:08.739Z,4.05
2022-08-07T12:39:50.736Z,5.07
2022-08-07T12:42:27.905Z,4.82
2022-08-07T12:45:12.194Z,4.55
2022-08-07T12:48:04.353Z,4.70
2022-08-07T12:50:57.529Z,4.15
2022-08-07T12:54:36.477Z,4.40
2022-08-07T12:56:51.231Z,4.63
2022-08-07T12:59:53.890Z,4.28
2022-08-07T13:02:33.031Z,4.55
2022-08-07T13:06:03.282Z,4.57
2022-08-07T13:10:21.366Z,4.38
2022-08-07T13:12:52.343Z,4.05
2022-08-07T13:18:51.060Z,3.78
2022-08-07T13:21:50.077Z,4.05
2022-08-07T13:24:43.924Z,4.20
2022-08-07T13:28:14.012Z,4.25
2022-08-07T13:30:40.439Z,4.57
2022-08-07T13:34:31.596Z,4.35
2022-08-07T13:36:53.524Z,3.97
2022-08-07T13:40:32.751Z,4.68
2022-08-07T13:42:38.874Z,3.60
2022-08-07T13:48:07.758Z,3.65
2022-08-07T13:51:00.498Z,4.80
2022-08-07T13:53:59.414Z,4.00
2022-08-07T13:56:35.942Z,4.07
2022-08-07T13:59:32.022Z,2.95
2022-08-07T14:02:10.757Z,4.47
2022-08-07T14:05:02.453Z,4.78
2022-08-07T14:08:00.194Z,4.60
2022-08-07T14:10:41.998Z,4.15
2022-08-07T14:13:18.707Z,4.25
2022-08-07T14:16:15.412Z,4.18
2022-08-07T14:18:57.469Z,4.78
2022-08-07T14:22:03.247Z,3.95
2022-08-07T14:24:51.371Z,4.10
2022-08-07T14:28:19.892Z,4.30
2022-08-07T14:30:32.568Z,3.97
2022-08-07T14:33:04.437Z,3.72
2022-08-07T14:35:44.867Z,3.85
2022-08-07T14:38:30.966Z,3.30
2022-08-07T14:41:05.285Z,3.75
2022-08-07T14:43:59.383Z,4.65
2022-08-07T14:46:33.336Z,2.97
2022-08-07T14:49:17.621Z,4.53
2022-08-07T14:54:50.022Z,3.65
2022-08-07T14:57:28.867Z,4.43
2022-08-07T15:00:20.861Z,3.97
2022-08-07T15:03:16.718Z,4.35
2022-08-07T15:05:54.202Z,4.22
2022-08-07T15:08:32.289Z,4.03
2022-08-07T15:11:14.945Z,4.47
2022-08-07T15:13:57.677Z,4.43
2022-08-07T15:16:54.524Z,4.32
2022-08-07T15:20:30.177Z,4.43
2022-08-07T15:22:31.117Z,4.10
2022-08-07T15:31:08.205Z,4.40
2022-08-07T15:33:42.730Z,4.75
2022-08-07T15:36:14.487Z,4.63
2022-08-07T15:39:10.565Z,4.38
2022-08-07T15:44:52.524Z,4.38
2022-08-07T15:48:00.162Z,4.75
2022-08-07T15:51:01.584Z,5.07
2022-08-07T15:53:52.417Z,4.35
2022-08-07T15:56:40.638Z,4.75
2022-08-07T15:59:20.261Z,4.70
2022-08-07T16:02:15.205Z,4.03
2022-08-07T16:04:45.302Z,4.90
2022-08-07T16:08:29.240Z,4.68
2022-08-07T16:10:25.311Z,4.38
2022-08-07T16:13:57.757Z,4.47
2022-08-07T16:16:48.372Z,4.57
2022-08-07T16:19:42.464Z,4.90
2022-08-07T16:22:54.835Z,5.00
2022-08-07T16:25:53.062Z,4.28
2022-08-07T16:29:18.103Z,5.00
2022-08-07T16:31:50.003Z,5.03
2022-08-07T16:34:48.378Z,5.00
2022-08-07T16:38:04.365Z,5.32
2022-08-07T16:41:01.592Z,4.85
2022-08-07T16:44:47.325Z,5.07
2022-08-07T16:47:56.540Z,5.20
2022-08-07T16:51:13.519Z,4.80
2022-08-07T16:54:10.760Z,4.85
2022-08-07T16:56:55.643Z,4.75
2022-08-07T16:59:47.891Z,4.75
2022-08-07T17:02:51.142Z,4.80
2022-08-07T17:06:20.007Z,4.70
2022-08-07T17:09:14.336Z,4.85
2022-08-07T17:12:04.842Z,5.18
2022-08-07T17:15:09.189Z,5.07
2022-08-07T17:18:11.529Z,5.05
2022-08-07T17:20:42.173Z,4.38
2022-08-07T17:23:32.410Z,3.80
2022-08-07T17:26:49.852Z,5.07
2022-08-07T17:30:15.858Z,4.75
2022-08-07T17:34:08.791Z,3.60
2022-08-07T17:36:13.727Z,4.40
2022-08-07T17:39:10.720Z,4.57
2022-08-07T17:42:02.775Z,4.50
2022-08-07T17:44:50.371Z,4.90
2022-08-07T17:47:54.053Z,5.10
2022-08-07T17:50:47.005Z,5.18
2022-08-07T17:53:23.943Z,4.30
2022-08-07T17:56:31.689Z,5.50
2022-08-07T17:59:16.986Z,5.78
2022-08-07T18:02:10.911Z,5.57
2022-08-07T18:05:21.212Z,5.13
2022-08-07T18:09:00.684Z,5.97
2022-08-07T18:12:16.166Z,5.85
2022-08-07T18:14:59.958Z,5.35
2022-08-07T18:18:45.426Z,4.50
2022-08-07T18:21:30.673Z,4.40
2022-08-07T18:24:34.423Z,5.43
2022-08-07T18:27:21.223Z,5.53
2022-08-07T18:30:31.672Z,5.80
2022-08-07T18:33:39.010Z,5.50
2022-08-07T18:37:09.624Z,5.00
2022-08-07T18:40:07.445Z,5.13
2022-08-07T18:43:57.761Z,6.10
2022-08-07T18:46:58.305Z,4.55
2022-08-07T18:53:06.125Z,35.42
2022-08-07T18:56:02.169Z,38.40
2022-08-07T18:58:51.028Z,13.73
2022-08-07T19:06:02.674Z,5.72
2022-08-07T19:08:56.355Z,5.35
2022-08-07T19:12:08.045Z,5.70
2022-08-07T19:14:51.080Z,6.60
2022-08-07T19:17:55.698Z,6.30
2022-08-07T19:20:32.710Z,6.85
2022-08-07T19:23:57.310Z,6.70
2022-08-07T19:26:22.999Z,5.65
2022-08-07T19:30:57.375Z,6.53
2022-08-07T19:32:17.705Z,5.35
2022-08-07T19:34:55.455Z,5.63
2022-08-07T19:37:25.411Z,5.70
2022-08-07T19:40:17.070Z,6.60
2022-08-07T19:43:01.081Z,7.60
2022-08-07T19:46:04.896Z,6.70
2022-08-07T19:48:44.423Z,6.20
2022-08-07T19:51:51.202Z,5.88
2022-08-07T19:54:33.607Z,5.03
2022-08-07T19:58:01.163Z,6.05
2022-08-07T20:00:09.028Z,6.05
2022-08-07T20:02:52.121Z,5.35
2022-08-07T20:05:30.954Z,5.75
2022-08-07T20:08:24.984Z,5.70
2022-08-07T20:11:09.639Z,5.60
2022-08-07T20:13:56.521Z,5.93
2022-08-07T20:16:32.354Z,4.95
2022-08-07T20:19:12.009Z,6.75
2022-08-07T20:21:48.131Z,7.25
2022-08-07T20:24:32.478Z,5.88
2022-08-07T20:27:05.064Z,6.00
2022-08-07T20:30:07.356Z,5.40
2022-08-07T20:32:46.793Z,5.97
2022-08-07T20:35:26.469Z,5.93
2022-08-07T20:37:58.964Z,4.78
2022-08-07T20:40:33.861Z,5.85
2022-08-07T20:43:14.399Z,6.00
2022-08-07T20:46:28.203Z,5.07
2022-08-07T20:49:00.782Z,5.88
2022-08-07T20:51:35.793Z,6.30
2022-08-07T20:54:15.315Z,5.78
2022-08-07T20:57:05.805Z,4.20
2022-08-07T21:00:06.868Z,5.97
2022-08-07T21:02:53.951Z,5.95
2022-08-07T21:05:51.298Z,4.93
2022-08-07T21:08:38.031Z,5.15
2022-08-07T21:11:16.884Z,5.10
2022-08-07T21:14:20.087Z,4.70
2022-08-07T21:18:00.939Z,5.35
2022-08-07T21:19:51.574Z,5.65
2022-08-07T21:22:51.367Z,4.78
2022-08-07T21:25:39.084Z,5.47
2022-08-07T21:28:47.591Z,4.97
2022-08-07T21:31:49.987Z,5.55
2022-08-07T21:34:32.884Z,5.05
2022-08-07T21:37:25.955Z,4.78
2022-08-07T21:40:23.378Z,5.20
2022-08-07T21:43:04.592Z,5.82
2022-08-07T21:46:09.853Z,5.60
2022-08-07T21:50:02.633Z,5.20
2022-08-07T21:53:00.126Z,5.82
2022-08-07T21:56:01.487Z,5.03
2022-08-07T21:58:53.117Z,5.82
2022-08-07T22:02:11.478Z,4.63
2022-08-07T22:04:31.563Z,5.68
2022-08-07T22:07:12.921Z,6.15
2022-08-07T22:09:54.213Z,6.07
2022-08-07T22:12:38.668Z,5.07
2022-08-07T22:16:42.141Z,6.13
2022-08-07T22:18:19.676Z,6.05
2022-08-07T22:20:58.543Z,5.80
2022-08-07T22:23:44.975Z,6.68
2022-08-07T22:26:44.215Z,6.03
2022-08-07T22:29:49.478Z,5.63
2022-08-07T22:32:46.228Z,5.65
2022-08-07T22:35:14.273Z,5.68
2022-08-07T22:38:05.373Z,5.30
2022-08-07T22:40:42.422Z,6.05
2022-08-07T22:43:15.997Z,6.00
2022-08-07T22:47:03.104Z,5.53
2022-08-07T22:49:33.640Z,6.30
2022-08-07T22:55:53.821Z,5.50
2022-08-07T22:58:28.174Z,6.30
2022-08-07T23:01:49.602Z,5.78
2022-08-07T23:04:56.854Z,6.03
2022-08-07T23:08:45.824Z,5.28
2022-08-07T23:11:45.792Z,6.47
2022-08-07T23:14:40.763Z,4.90
2022-08-07T23:18:18.027Z,5.97
2022-08-07T23:21:16.210Z,5.68
2022-08-07T23:24:16.752Z,6.25
2022-08-07T23:27:18.637Z,5.82
2022-08-07T23:30:39.545Z,6.57
2022-08-07T23:34:34.603Z,5.80
2022-08-07T23:37:19.096Z,5.72
2022-08-07T23:40:09.762Z,5.88
2022-08-07T23:43:07.625Z,6.68
2022-08-07T23:46:10.693Z,6.40
2022-08-07T23:49:19.360Z,4.88
2022-08-07T23:53:06.384Z,5.22
2022-08-07T23:55:51.909Z,5.93
2022-08-07T23:58:26.205Z,5.22
